Time;durP1;ratioP1;P1;durP2;ratioP2;P2;SDS_P1;SDS_P2;PMS_P1;PMS_P2;Temp;Humidity;BMP_temperature;BMP_pressure;BME280_temperature;BME280_humidity;BME280_pressure;Samples;Min_cycle;Max_cycle;Signal;HPM_P1;HPM_P2
2021/03/10 00:02:49;;;;;;;8.20;4.37;;;;;;;;;;10334074;28;20263;-79
2021/03/10 00:07:52;;;;;;;7.83;4.60;;;;;;;;;;10331223;28;20241;-79
2021/03/10 00:12:57;;;;;;;7.43;4.70;;;;;;;;;;10329822;28;20280;-79
2021/03/10 00:17:59;;;;;;;8.33;4.97;;;;;;;;;;10329437;28;20216;-78
2021/03/10 00:23:02;;;;;;;6.20;4.20;;;;;;;;;;10328058;28;20375;-77
2021/03/10 00:28:04;;;;;;;7.30;4.57;;;;;;;;;;10330151;28;20751;-78
2021/03/10 00:33:06;;;;;;;6.37;4.47;;;;;;;;;;10331503;28;20228;-79
2021/03/10 00:38:09;;;;;;;7.23;4.87;;;;;;;;;;10331074;28;20220;-79
2021/03/10 00:43:13;;;;;;;6.03;4.50;;;;;;;;;;10339736;28;20217;-79
2021/03/10 00:48:15;;;;;;;7.07;4.53;;;;;;;;;;10328480;28;20241;-79
2021/03/10 00:53:18;;;;;;;8.43;4.23;;;;;;;;;;10337370;28;20224;-79
2021/03/10 00:58:20;;;;;;;6.43;4.60;;;;;;;;;;10333300;28;20230;-78
2021/03/10 01:03:22;;;;;;;7.47;5.07;;;;;;;;;;10335732;28;20256;-79
2021/03/10 01:08:24;;;;;;;6.53;4.67;;;;;;;;;;10333219;28;20267;-79
2021/03/10 01:13:27;;;;;;;6.70;4.97;;;;;;;;;;10332781;28;20217;-78
2021/03/10 01:18:28;;;;;;;7.23;4.77;;;;;;;;;;10336768;28;20231;-79
2021/03/10 01:23:31;;;;;;;8.37;5.00;;;;;;;;;;10336718;28;20717;-79
2021/03/10 01:28:33;;;;;;;6.90;4.87;;;;;;;;;;10332165;28;20705;-78
2021/03/10 01:33:35;;;;;;;7.13;4.90;;;;;;;;;;10345814;28;20610;-79
2021/03/10 01:38:46;;;;;;;7.23;4.60;;;;;;;;;;10342374;28;20229;-79
2021/03/10 01:43:48;;;;;;;8.90;4.27;;;;;;;;;;10336375;28;20217;-79
2021/03/10 01:48:50;;;;;;;7.43;4.90;;;;;;;;;;10335648;28;20232;-78
2021/03/10 01:53:53;;;;;;;8.00;4.50;;;;;;;;;;10331982;28;21026;-77
2021/03/10 01:58:55;;;;;;;8.00;5.13;;;;;;;;;;10332685;28;20220;-78
2021/03/10 02:03:57;;;;;;;7.10;5.27;;;;;;;;;;10334455;28;20237;-78
2021/03/10 02:09:12;;;;;;;10.33;5.70;;;;;;;;;;10335216;28;20359;-79
2021/03/10 02:14:19;;;;;;;9.63;5.27;;;;;;;;;;10328870;28;20396;-77
2021/03/10 02:19:39;;;;;;;8.77;5.53;;;;;;;;;;10332013;28;20213;-79
2021/03/10 02:24:52;;;;;;;10.03;5.93;;;;;;;;;;10329177;28;20225;-78
2021/03/10 02:29:55;;;;;;;9.03;6.00;;;;;;;;;;10332105;28;20233;-78
2021/03/10 02:34:57;;;;;;;8.90;5.97;;;;;;;;;;10332521;28;20228;-78
2021/03/10 02:39:59;;;;;;;10.40;6.00;;;;;;;;;;10332682;28;20224;-77
2021/03/10 02:45:03;;;;;;;10.57;5.90;;;;;;;;;;10331882;28;20299;-77
2021/03/10 02:50:06;;;;;;;12.60;7.80;;;;;;;;;;10335555;28;20610;-78
2021/03/10 02:55:08;;;;;;;12.53;7.63;;;;;;;;;;10331890;28;20295;-77
2021/03/10 03:00:13;;;;;;;11.50;7.47;;;;;;;;;;10329224;28;20247;-78
2021/03/10 03:05:15;;;;;;;14.17;8.53;;;;;;;;;;10331669;28;20233;-77
2021/03/10 03:10:18;;;;;;;12.17;7.30;;;;;;;;;;10335801;28;20249;-77
2021/03/10 03:15:22;;;;;;;12.03;7.53;;;;;;;;;;10331833;28;20681;-78
2021/03/10 03:20:25;;;;;;;12.47;8.13;;;;;;;;;;10332514;28;20208;-78
2021/03/10 03:25:34;;;;;;;12.83;8.00;;;;;;;;;;10331767;28;20743;-77
2021/03/10 03:30:37;;;;;;;13.20;8.27;;;;;;;;;;10328329;28;20227;-77
2021/03/10 03:35:40;;;;;;;14.60;8.40;;;;;;;;;;10327748;28;20693;-77
2021/03/10 03:40:42;;;;;;;12.70;8.40;;;;;;;;;;10328870;28;20258;-77
2021/03/10 03:45:49;;;;;;;12.80;8.47;;;;;;;;;;10334555;28;20240;-77
2021/03/10 03:50:51;;;;;;;14.90;9.50;;;;;;;;;;10330791;28;20220;-77
2021/03/10 03:55:53;;;;;;;14.47;8.57;;;;;;;;;;10330468;28;20616;-78
2021/03/10 04:00:59;;;;;;;15.57;9.43;;;;;;;;;;10326987;28;20212;-78
2021/03/10 04:06:00;;;;;;;17.13;9.60;;;;;;;;;;10330173;28;20251;-78
2021/03/10 04:11:05;;;;;;;17.37;10.07;;;;;;;;;;10333259;28;20581;-79
2021/03/10 04:16:09;;;;;;;16.73;9.63;;;;;;;;;;10340384;28;20232;-79
2021/03/10 04:21:11;;;;;;;15.63;10.13;;;;;;;;;;10339064;28;20236;-77
2021/03/10 04:26:12;;;;;;;19.63;10.30;;;;;;;;;;10336111;28;20247;-77
2021/03/10 04:31:15;;;;;;;17.33;10.30;;;;;;;;;;10334776;28;20229;-78
2021/03/10 04:36:18;;;;;;;20.17;11.50;;;;;;;;;;10338619;28;20224;-78
2021/03/10 04:41:20;;;;;;;19.33;11.63;;;;;;;;;;10339235;28;20233;-78
2021/03/10 04:46:23;;;;;;;19.37;12.10;;;;;;;;;;10336417;28;20959;-78
2021/03/10 04:51:25;;;;;;;21.30;13.03;;;;;;;;;;10337105;28;20724;-77
2021/03/10 04:56:30;;;;;;;22.63;13.50;;;;;;;;;;10342298;28;20220;-77
2021/03/10 05:01:33;;;;;;;26.87;15.43;;;;;;;;;;10341604;28;20240;-78
2021/03/10 05:06:35;;;;;;;28.77;16.73;;;;;;;;;;10330772;28;20251;-77
2021/03/10 05:11:37;;;;;;;31.97;18.17;;;;;;;;;;10334549;28;20612;-78
2021/03/10 05:16:39;;;;;;;38.30;17.97;;;;;;;;;;10331612;28;20583;-78
2021/03/10 05:21:41;;;;;;;31.17;18.07;;;;;;;;;;10340101;28;20618;-78
2021/03/10 05:26:43;;;;;;;34.67;19.73;;;;;;;;;;10330907;28;20245;-81
2021/03/10 05:31:46;;;;;;;39.20;20.50;;;;;;;;;;10333631;28;20688;-79
2021/03/10 05:36:48;;;;;;;37.33;22.03;;;;;;;;;;10339767;28;20703;-78
2021/03/10 05:41:50;;;;;;;36.77;21.17;;;;;;;;;;10334414;28;20249;-78
2021/03/10 05:46:53;;;;;;;38.50;22.30;;;;;;;;;;10330166;28;20717;-78
2021/03/10 05:52:05;;;;;;;32.83;21.20;;;;;;;;;;10328200;28;20221;-77
2021/03/10 05:57:07;;;;;;;38.07;21.97;;;;;;;;;;10335397;28;20738;-77
2021/03/10 06:02:10;;;;;;;36.47;21.50;;;;;;;;;;10333221;28;20327;-78
2021/03/10 06:07:19;;;;;;;38.00;22.00;;;;;;;;;;10326721;28;20241;-77
2021/03/10 06:12:21;;;;;;;41.47;21.90;;;;;;;;;;10332932;28;20228;-77
2021/03/10 06:17:24;;;;;;;40.23;22.30;;;;;;;;;;10331564;28;20232;-78
2021/03/10 06:22:33;;;;;;;37.23;21.97;;;;;;;;;;10334015;28;20694;-79
2021/03/10 06:27:35;;;;;;;40.77;22.13;;;;;;;;;;10332674;28;20291;-78
2021/03/10 06:32:41;;;;;;;39.83;24.20;;;;;;;;;;10331280;28;20217;-78
2021/03/10 06:37:43;;;;;;;39.60;23.70;;;;;;;;;;10332943;28;20217;-78
2021/03/10 06:42:53;;;;;;;43.67;25.00;;;;;;;;;;10328690;28;20212;-79
2021/03/10 06:48:17;;;;;;;38.20;23.27;;;;;;;;;;10332081;28;20241;-79
2021/03/10 06:53:30;;;;;;;40.27;23.00;;;;;;;;;;10332905;28;20256;-79
2021/03/10 06:58:31;;;;;;;44.17;24.60;;;;;;;;;;10340571;28;20311;-79
2021/03/10 07:03:46;;;;;;;39.33;23.50;;;;;;;;;;10330083;28;20241;-78
2021/03/10 07:09:13;;;;;;;46.23;24.10;;;;;;;;;;10339776;28;20984;-78
2021/03/10 07:14:17;;;;;;;42.03;24.77;;;;;;;;;;10337828;28;20311;-79
2021/03/10 07:19:29;;;;;;;42.57;23.90;;;;;;;;;;10333833;28;20228;-78
2021/03/10 07:24:36;;;;;;;43.10;24.90;;;;;;;;;;10327968;28;21119;-79
2021/03/10 07:29:41;;;;;;;41.30;24.90;;;;;;;;;;10329025;28;20243;-79
2021/03/10 07:34:44;;;;;;;40.57;23.27;;;;;;;;;;10335106;28;20312;-79
2021/03/10 07:39:47;;;;;;;41.67;23.53;;;;;;;;;;10328439;28;20217;-79
2021/03/10 07:44:55;;;;;;;38.90;23.37;;;;;;;;;;10335989;28;20807;-79
2021/03/10 07:49:58;;;;;;;40.17;23.17;;;;;;;;;;10330903;28;20245;-79
2021/03/10 07:55:01;;;;;;;39.37;22.70;;;;;;;;;;10345064;28;20216;-79
2021/03/10 08:00:07;;;;;;;40.77;22.03;;;;;;;;;;10334458;28;20223;-79
2021/03/10 08:05:20;;;;;;;40.17;22.30;;;;;;;;;;10339156;28;20712;-79
2021/03/10 08:10:42;;;;;;;43.03;23.03;;;;;;;;;;10331139;28;20252;-79
2021/03/10 08:15:44;;;;;;;40.37;21.97;;;;;;;;;;10337549;28;21185;-79
2021/03/10 08:20:56;;;;;;;36.00;21.57;;;;;;;;;;10336941;28;20841;-78
2021/03/10 08:26:05;;;;;;;36.80;21.30;;;;;;;;;;10334637;28;20221;-78
2021/03/10 08:31:08;;;;;;;38.63;21.73;;;;;;;;;;10341808;28;20558;-78
2021/03/10 08:36:11;;;;;;;39.80;22.10;;;;;;;;;;10334719;28;20682;-79
2021/03/10 08:41:13;;;;;;;37.57;22.10;;;;;;;;;;10340921;28;20646;-78
2021/03/10 08:46:15;;;;;;;38.17;21.63;;;;;;;;;;10327474;28;20246;-78
2021/03/10 08:51:20;;;;;;;39.00;20.47;;;;;;;;;;10338494;28;20247;-78
2021/03/10 08:56:22;;;;;;;38.30;21.47;;;;;;;;;;10335395;28;20240;-78
2021/03/10 09:01:24;;;;;;;38.83;21.87;;;;;;;;;;10333195;28;20244;-79
2021/03/10 09:06:28;;;;;;;36.90;21.30;;;;;;;;;;10332645;28;20263;-79
2021/03/10 09:11:31;;;;;;;41.17;21.53;;;;;;;;;;10330224;28;20213;-78
2021/03/10 09:16:33;;;;;;;33.37;20.60;;;;;;;;;;10343536;28;20365;-78
2021/03/10 09:21:40;;;;;;;38.00;20.83;;;;;;;;;;10338105;28;20221;-79
2021/03/10 09:26:42;;;;;;;33.80;20.03;;;;;;;;;;10340247;28;20900;-78
2021/03/10 09:31:52;;;;;;;36.27;19.40;;;;;;;;;;10332985;28;20223;-78
2021/03/10 09:37:04;;;;;;;30.87;17.70;;;;;;;;;;10336690;28;20218;-78
2021/03/10 09:42:07;;;;;;;31.07;18.07;;;;;;;;;;10338274;28;20227;-79
2021/03/10 09:47:13;;;;;;;30.40;18.13;;;;;;;;;;10318721;28;20236;-79
2021/03/10 09:52:15;;;;;;;26.90;17.80;;;;;;;;;;10333267;28;20221;-79
2021/03/10 09:57:24;;;;;;;29.40;18.10;;;;;;;;;;10334302;28;20216;-78
2021/03/10 10:02:27;;;;;;;30.63;17.07;;;;;;;;;;10329663;28;20240;-79
2021/03/10 10:07:30;;;;;;;26.77;16.20;;;;;;;;;;10328056;28;20236;-79
2021/03/10 10:12:41;;;;;;;28.50;17.17;;;;;;;;;;10330240;28;20213;-79
2021/03/10 10:17:44;;;;;;;30.80;16.60;;;;;;;;;;10328142;28;20217;-79
2021/03/10 10:22:48;;;;;;;28.00;16.33;;;;;;;;;;10326569;28;20222;-80
2021/03/10 10:27:53;;;;;;;26.53;16.50;;;;;;;;;;10332749;28;20256;-79
2021/03/10 10:32:55;;;;;;;28.20;15.90;;;;;;;;;;10332792;28;20228;-79
2021/03/10 10:37:58;;;;;;;27.07;16.23;;;;;;;;;;10327300;28;20217;-79
2021/03/10 10:43:00;;;;;;;26.43;15.80;;;;;;;;;;10331819;28;20209;-80
2021/03/10 10:48:02;;;;;;;28.60;16.43;;;;;;;;;;10328399;28;20255;-79
2021/03/10 10:53:05;;;;;;;30.20;17.00;;;;;;;;;;10333913;28;20670;-79
2021/03/10 10:58:07;;;;;;;28.77;15.93;;;;;;;;;;10325596;28;20222;-79
2021/03/10 11:03:12;;;;;;;27.80;15.53;;;;;;;;;;10334280;28;20264;-79
2021/03/10 11:08:15;;;;;;;27.83;16.80;;;;;;;;;;10334145;28;20324;-79
2021/03/10 11:13:19;;;;;;;26.43;15.17;;;;;;;;;;10325774;28;20241;-78
2021/03/10 11:18:21;;;;;;;27.07;15.93;;;;;;;;;;10330072;28;20835;-79
2021/03/10 11:23:24;;;;;;;26.93;15.40;;;;;;;;;;10326118;28;20219;-79
2021/03/10 11:28:27;;;;;;;29.50;15.10;;;;;;;;;;10331180;28;20237;-79
2021/03/10 11:33:29;;;;;;;25.40;15.13;;;;;;;;;;10329528;28;20673;-79
2021/03/10 11:38:33;;;;;;;27.60;14.97;;;;;;;;;;10333467;28;20221;-79
2021/03/10 11:43:35;;;;;;;26.50;15.27;;;;;;;;;;10327401;28;20210;-78
2021/03/10 11:48:44;;;;;;;28.00;14.83;;;;;;;;;;10338111;28;20244;-78
2021/03/10 11:53:47;;;;;;;26.10;14.40;;;;;;;;;;10326288;28;20228;-80
2021/03/10 11:58:49;;;;;;;23.63;14.77;;;;;;;;;;10337210;28;21208;-79
2021/03/10 12:03:51;;;;;;;24.43;14.10;;;;;;;;;;10320784;28;20751;-78
2021/03/10 12:08:54;;;;;;;23.70;15.83;;;;;;;;;;10338843;28;20241;-79
2021/03/10 12:13:57;;;;;;;25.70;14.20;;;;;;;;;;10323960;28;20217;-80
2021/03/10 12:18:58;;;;;;;26.23;15.60;;;;;;;;;;10334331;28;20311;-79
2021/03/10 12:24:01;;;;;;;26.67;14.33;;;;;;;;;;10327522;28;20220;-79
2021/03/10 12:29:03;;;;;;;27.47;14.30;;;;;;;;;;10326544;28;20237;-79
2021/03/10 12:34:06;;;;;;;26.93;14.97;;;;;;;;;;10338159;28;20225;-79
2021/03/10 12:39:12;;;;;;;26.80;14.63;;;;;;;;;;10328976;28;20209;-79
2021/03/10 12:44:17;;;;;;;25.87;14.47;;;;;;;;;;10335730;28;20241;-79
2021/03/10 12:49:24;;;;;;;23.87;13.90;;;;;;;;;;10333802;28;20237;-77
2021/03/10 12:54:27;;;;;;;28.13;14.53;;;;;;;;;;10334390;28;20287;-80
2021/03/10 12:59:29;;;;;;;26.17;14.50;;;;;;;;;;10332274;28;20217;-78
2021/03/10 13:04:31;;;;;;;22.77;13.80;;;;;;;;;;10329156;28;20237;-79
2021/03/10 13:09:35;;;;;;;23.37;12.87;;;;;;;;;;10337073;28;20356;-79
2021/03/10 13:14:37;;;;;;;22.70;13.23;;;;;;;;;;10342966;28;20218;-78
2021/03/10 13:19:40;;;;;;;24.43;13.23;;;;;;;;;;10335195;28;20223;-79
2021/03/10 13:24:43;;;;;;;21.67;12.80;;;;;;;;;;10332038;28;20223;-78
2021/03/10 13:29:45;;;;;;;19.37;12.27;;;;;;;;;;10336432;28;20245;-79
2021/03/10 13:34:47;;;;;;;26.63;13.67;;;;;;;;;;10332205;28;20223;-79
2021/03/10 13:39:54;;;;;;;21.00;12.57;;;;;;;;;;10326925;28;20213;-78
2021/03/10 13:44:56;;;;;;;24.10;13.77;;;;;;;;;;10338396;28;20689;-79
2021/03/10 13:49:58;;;;;;;21.63;13.07;;;;;;;;;;10342054;28;20245;-79
2021/03/10 13:55:02;;;;;;;23.27;13.00;;;;;;;;;;10341044;28;20877;-78
2021/03/10 14:00:04;;;;;;;21.23;12.53;;;;;;;;;;10342487;28;20249;-78
2021/03/10 14:05:15;;;;;;;22.20;12.20;;;;;;;;;;10331089;28;20232;-79
2021/03/10 14:10:26;;;;;;;17.17;11.53;;;;;;;;;;10334870;28;20236;-78
2021/03/10 14:15:39;;;;;;;19.60;11.90;;;;;;;;;;10333218;28;20224;-79
2021/03/10 14:20:43;;;;;;;18.77;11.17;;;;;;;;;;10333139;28;20674;-80
2021/03/10 14:25:49;;;;;;;23.53;12.80;;;;;;;;;;10334207;28;20227;-79
2021/03/10 14:31:07;;;;;;;24.13;11.83;;;;;;;;;;10333170;28;20242;-79
2021/03/10 14:36:10;;;;;;;21.30;13.30;;;;;;;;;;10336743;28;21077;-78
2021/03/10 14:41:15;;;;;;;26.37;13.47;;;;;;;;;;10339108;28;20216;-78
2021/03/10 14:46:24;;;;;;;24.33;13.23;;;;;;;;;;10332783;28;20205;-78
2021/03/10 14:51:27;;;;;;;21.00;13.13;;;;;;;;;;10336632;28;20244;-79
2021/03/10 14:56:41;;;;;;;20.80;11.43;;;;;;;;;;10331961;28;20690;-78
2021/03/10 15:01:43;;;;;;;20.67;11.50;;;;;;;;;;10324817;28;20713;-78
2021/03/10 15:06:45;;;;;;;19.03;10.40;;;;;;;;;;10328992;28;20325;-78
2021/03/10 15:11:48;;;;;;;18.53;11.63;;;;;;;;;;10322834;28;20286;-77
2021/03/10 15:16:50;;;;;;;22.70;11.87;;;;;;;;;;10333283;28;20269;-78
2021/03/10 15:21:53;;;;;;;17.50;10.80;;;;;;;;;;10331059;28;20228;-78
2021/03/10 15:26:55;;;;;;;20.80;11.87;;;;;;;;;;10334367;28;20225;-79
2021/03/10 15:31:58;;;;;;;19.57;11.60;;;;;;;;;;10325693;28;20727;-79
2021/03/10 15:37:00;;;;;;;22.33;12.23;;;;;;;;;;10323894;28;20682;-79
2021/03/10 15:42:04;;;;;;;21.20;12.40;;;;;;;;;;10324076;28;20212;-78
2021/03/10 15:47:06;;;;;;;21.37;13.20;;;;;;;;;;10330354;28;20619;-80
2021/03/10 15:52:09;;;;;;;24.97;13.80;;;;;;;;;;10329753;28;20209;-79
2021/03/10 15:57:12;;;;;;;27.40;14.40;;;;;;;;;;10336746;28;20220;-79
2021/03/10 16:02:14;;;;;;;22.83;13.30;;;;;;;;;;10330524;28;20230;-79
2021/03/10 16:07:16;;;;;;;24.27;14.27;;;;;;;;;;10338066;28;20304;-79
2021/03/10 16:12:19;;;;;;;25.80;14.80;;;;;;;;;;10341249;28;20220;-79
2021/03/10 16:17:21;;;;;;;25.70;14.33;;;;;;;;;;10340136;28;20263;-79
2021/03/10 16:22:24;;;;;;;23.50;14.80;;;;;;;;;;10339734;28;20275;-78
2021/03/10 16:27:27;;;;;;;23.43;14.20;;;;;;;;;;10332358;28;20247;-78
2021/03/10 16:32:29;;;;;;;25.43;15.00;;;;;;;;;;10338791;28;20775;-78
2021/03/10 16:37:32;;;;;;;24.03;15.07;;;;;;;;;;10335901;28;20205;-79
2021/03/10 16:42:35;;;;;;;25.50;15.00;;;;;;;;;;10335237;28;20298;-79
2021/03/10 16:47:37;;;;;;;27.60;16.43;;;;;;;;;;10332981;28;20240;-78
2021/03/10 16:52:40;;;;;;;28.80;15.23;;;;;;;;;;10340886;28;20213;-78
2021/03/10 16:57:43;;;;;;;26.63;15.30;;;;;;;;;;10336698;28;20209;-79
2021/03/10 17:02:45;;;;;;;23.77;14.97;;;;;;;;;;10339066;28;20237;-79
2021/03/10 17:07:47;;;;;;;25.10;14.90;;;;;;;;;;10327851;28;20966;-78
2021/03/10 17:12:49;;;;;;;28.23;14.40;;;;;;;;;;10338043;28;20226;-78
2021/03/10 17:17:51;;;;;;;26.90;15.23;;;;;;;;;;10338941;28;20231;-78
2021/03/10 17:22:53;;;;;;;22.47;13.33;;;;;;;;;;10332811;28;20228;-78
2021/03/10 17:27:56;;;;;;;21.87;13.03;;;;;;;;;;10337446;28;20233;-79
2021/03/10 17:32:58;;;;;;;23.90;14.03;;;;;;;;;;10330064;28;20603;-77
2021/03/10 17:38:00;;;;;;;21.23;12.50;;;;;;;;;;10336221;28;20209;-80
2021/03/10 17:43:06;;;;;;;22.97;12.87;;;;;;;;;;10333541;28;20311;-80
2021/03/10 17:48:20;;;;;;;21.57;12.57;;;;;;;;;;10334506;28;20243;-79
2021/03/10 17:53:22;;;;;;;22.23;13.13;;;;;;;;;;10332530;28;20209;-79
2021/03/10 17:58:27;;;;;;;22.27;13.07;;;;;;;;;;10333591;28;20267;-77
2021/03/10 18:03:29;;;;;;;21.40;13.30;;;;;;;;;;10335126;28;20236;-78
2021/03/10 18:08:33;;;;;;;23.27;13.10;;;;;;;;;;10331727;28;20385;-78
2021/03/10 18:13:37;;;;;;;27.63;13.97;;;;;;;;;;10333617;28;20217;-78
2021/03/10 18:18:40;;;;;;;25.90;14.17;;;;;;;;;;10330977;28;20307;-78
2021/03/10 18:24:23;;;;;;;25.17;13.90;;;;;;;;;;10326512;28;20760;-79
2021/03/10 18:29:26;;;;;;;29.83;15.27;;;;;;;;;;10330672;28;20249;-78
2021/03/10 18:34:30;;;;;;;25.67;15.37;;;;;;;;;;10338474;28;20236;-79
2021/03/10 18:40:16;;;;;;;28.70;15.53;;;;;;;;;;10329034;28;20604;-78
2021/03/10 18:56:41;;;;;;;30.20;16.63;;;;;;;;;;10329983;28;20221;-78
2021/03/10 19:01:58;;;;;;;31.33;17.37;;;;;;;;;;10324240;28;20245;-78
2021/03/10 19:18:48;;;;;;;30.13;17.83;;;;;;;;;;10333407;28;20223;-79
2021/03/10 19:24:02;;;;;;;31.60;17.70;;;;;;;;;;10323757;28;20359;-79
2021/03/10 19:29:06;;;;;;;28.90;18.27;;;;;;;;;;10328742;28;20244;-78
2021/03/10 19:34:33;;;;;;;29.50;18.07;;;;;;;;;;10310423;28;20675;-79
2021/03/10 19:39:36;;;;;;;28.57;17.47;;;;;;;;;;10330806;28;20216;-79
2021/03/10 19:44:40;;;;;;;32.13;18.47;;;;;;;;;;10334803;28;20213;-79
2021/03/10 19:55:04;;;;;;;31.67;18.00;;;;;;;;;;10330210;28;20251;-79
2021/03/10 20:00:08;;;;;;;32.50;17.73;;;;;;;;;;10332562;28;20217;-81
2021/03/10 20:05:12;;;;;;;32.17;18.23;;;;;;;;;;10330629;28;20233;-80
2021/03/10 20:10:18;;;;;;;28.33;17.57;;;;;;;;;;10333669;28;20237;-81
2021/03/10 20:15:28;;;;;;;30.07;16.93;;;;;;;;;;10333728;28;20266;-81
2021/03/10 20:20:31;;;;;;;28.90;16.10;;;;;;;;;;10338231;28;20223;-80
2021/03/10 20:25:33;;;;;;;26.43;15.90;;;;;;;;;;10334898;28;20212;-81
2021/03/10 20:30:36;;;;;;;26.27;15.73;;;;;;;;;;10333415;28;20236;-81
2021/03/10 20:35:39;;;;;;;27.00;15.90;;;;;;;;;;10335352;28;20217;-81
2021/03/10 20:40:41;;;;;;;30.23;16.30;;;;;;;;;;10338111;28;20762;-80
2021/03/10 20:45:47;;;;;;;24.43;14.90;;;;;;;;;;10339980;28;20344;-81
2021/03/10 20:51:07;;;;;;;27.30;16.10;;;;;;;;;;10328069;28;20264;-80
2021/03/10 20:56:10;;;;;;;26.60;15.67;;;;;;;;;;10334125;28;20992;-80
2021/03/10 21:01:12;;;;;;;22.27;14.00;;;;;;;;;;10325345;28;20919;-79
2021/03/10 21:06:24;;;;;;;23.37;14.27;;;;;;;;;;10325126;28;20381;-80
2021/03/10 21:11:26;;;;;;;23.77;14.10;;;;;;;;;;10327197;28;20241;-80
2021/03/10 21:16:28;;;;;;;25.73;15.57;;;;;;;;;;10327794;28;20221;-80
2021/03/10 21:21:31;;;;;;;23.37;14.03;;;;;;;;;;10324258;28;20216;-79
2021/03/10 21:26:33;;;;;;;22.43;13.70;;;;;;;;;;10324812;28;20228;-80
2021/03/10 21:31:35;;;;;;;22.97;14.03;;;;;;;;;;10327827;28;20236;-80
2021/03/10 21:36:38;;;;;;;26.10;14.10;;;;;;;;;;10330069;28;20271;-78
2021/03/10 21:41:40;;;;;;;24.67;14.20;;;;;;;;;;10317594;28;20225;-77
2021/03/10 21:46:42;;;;;;;24.30;13.67;;;;;;;;;;10321966;28;20221;-78
2021/03/10 21:51:45;;;;;;;23.53;14.60;;;;;;;;;;10329863;28;20240;-78
2021/03/10 21:56:47;;;;;;;25.23;14.97;;;;;;;;;;10327159;28;20217;-78
2021/03/10 22:01:49;;;;;;;23.53;14.00;;;;;;;;;;10324230;28;21465;-78
2021/03/10 22:06:52;;;;;;;23.77;13.83;;;;;;;;;;10329071;28;20217;-77
2021/03/10 22:12:04;;;;;;;26.37;14.17;;;;;;;;;;10328904;28;20338;-77
2021/03/10 22:17:06;;;;;;;24.63;14.40;;;;;;;;;;10327008;28;20212;-76
2021/03/10 22:22:12;;;;;;;22.37;14.00;;;;;;;;;;10336586;28;20210;-78
2021/03/10 22:27:20;;;;;;;23.63;13.50;;;;;;;;;;10332773;28;20698;-77
2021/03/10 22:32:25;;;;;;;21.70;13.03;;;;;;;;;;10325578;28;20288;-77
2021/03/10 22:37:28;;;;;;;22.83;14.27;;;;;;;;;;10325991;28;20232;-77
2021/03/10 22:42:36;;;;;;;21.43;13.60;;;;;;;;;;10326229;28;20224;-77
2021/03/10 22:47:38;;;;;;;24.53;14.53;;;;;;;;;;10320496;28;20357;-76
2021/03/10 22:52:41;;;;;;;22.20;13.30;;;;;;;;;;10329702;28;20675;-77
2021/03/10 22:57:44;;;;;;;20.07;12.20;;;;;;;;;;10326176;28;20733;-77
2021/03/10 23:02:57;;;;;;;21.80;13.10;;;;;;;;;;10331448;28;20246;-77
2021/03/10 23:08:02;;;;;;;17.67;12.07;;;;;;;;;;10326463;28;20705;-78
2021/03/10 23:13:04;;;;;;;19.83;13.07;;;;;;;;;;10329427;28;20221;-78
2021/03/10 23:18:07;;;;;;;19.73;12.53;;;;;;;;;;10335560;28;20584;-78
2021/03/10 23:23:24;;;;;;;21.50;12.50;;;;;;;;;;10319625;28;20295;-78
2021/03/10 23:28:26;;;;;;;22.67;13.73;;;;;;;;;;10335975;28;20241;-77
2021/03/10 23:33:28;;;;;;;22.00;12.47;;;;;;;;;;10333007;28;20220;-78
2021/03/10 23:38:32;;;;;;;19.93;12.57;;;;;;;;;;10327640;28;20208;-78
2021/03/10 23:43:34;;;;;;;21.87;12.47;;;;;;;;;;10325331;28;20213;-78
2021/03/10 23:48:36;;;;;;;19.77;12.43;;;;;;;;;;10329227;28;20329;-77
2021/03/10 23:53:39;;;;;;;18.93;12.70;;;;;;;;;;10327758;28;20219;-77
2021/03/10 23:58:41;;;;;;;20.80;12.70;;;;;;;;;;10331924;28;20754;-76
